sensor_id;sensor_type;location;lat;lon;timestamp;pressure;altitude;pressure_sealevel;temperature;humidity
79453;BME280;68899;52.116;5.404;2023-11-21T00:01:04;101125.03;;;6.75;85.67
79453;BME280;68899;52.116;5.404;2023-11-21T00:03:31;101130.47;;;6.71;85.63
79453;BME280;68899;52.116;5.404;2023-11-21T00:05:58;101130.59;;;6.68;85.46
79453;BME280;68899;52.116;5.404;2023-11-21T00:08:25;101129.81;;;6.66;85.85
79453;BME280;68899;52.116;5.404;2023-11-21T00:10:52;101126.34;;;6.65;85.58
79453;BME280;68899;52.116;5.404;2023-11-21T00:13:18;101125.50;;;6.65;85.79
79453;BME280;68899;52.116;5.404;2023-11-21T00:15:45;101135.94;;;6.65;85.55
79453;BME280;68899;52.116;5.404;2023-11-21T00:18:11;101127.41;;;6.61;85.59
79453;BME280;68899;52.116;5.404;2023-11-21T00:20:38;101135.22;;;6.61;85.29
79453;BME280;68899;52.116;5.404;2023-11-21T00:23:04;101138.72;;;6.60;85.42
79453;BME280;68899;52.116;5.404;2023-11-21T00:25:31;101134.50;;;6.58;85.08
79453;BME280;68899;52.116;5.404;2023-11-21T00:27:58;101143.25;;;6.57;85.66
79453;BME280;68899;52.116;5.404;2023-11-21T00:30:25;101145.09;;;6.55;86.06
79453;BME280;68899;52.116;5.404;2023-11-21T00:32:52;101145.16;;;6.53;85.83
79453;BME280;68899;52.116;5.404;2023-11-21T00:35:18;101153.09;;;6.50;85.80
79453;BME280;68899;52.116;5.404;2023-11-21T00:37:45;101148.84;;;6.47;85.86
79453;BME280;68899;52.116;5.404;2023-11-21T00:40:12;101145.50;;;6.44;85.87
79453;BME280;68899;52.116;5.404;2023-11-21T00:42:39;101145.63;;;6.41;85.59
79453;BME280;68899;52.116;5.404;2023-11-21T00:45:06;101147.56;;;6.36;85.91
79453;BME280;68899;52.116;5.404;2023-11-21T00:47:33;101151.09;;;6.35;85.81
79453;BME280;68899;52.116;5.404;2023-11-21T00:50:00;101149.44;;;6.32;85.56
79453;BME280;68899;52.116;5.404;2023-11-21T00:52:27;101150.41;;;6.30;85.77
79453;BME280;68899;52.116;5.404;2023-11-21T00:54:53;101153.94;;;6.29;85.86
79453;BME280;68899;52.116;5.404;2023-11-21T00:57:20;101164.47;;;6.27;85.99
79453;BME280;68899;52.116;5.404;2023-11-21T00:59:46;101160.03;;;6.29;86.15
79453;BME280;68899;52.116;5.404;2023-11-21T01:02:12;101164.47;;;6.27;85.84
79453;BME280;68899;52.116;5.404;2023-11-21T01:04:39;101166.16;;;6.28;86.34
79453;BME280;68899;52.116;5.404;2023-11-21T01:07:06;101171.38;;;6.28;86.12
79453;BME280;68899;52.116;5.404;2023-11-21T01:09:32;101175.75;;;6.28;85.83
79453;BME280;68899;52.116;5.404;2023-11-21T01:11:58;101174.97;;;6.26;86.64
79453;BME280;68899;52.116;5.404;2023-11-21T01:14:27;101181.06;;;6.26;86.21
79453;BME280;68899;52.116;5.404;2023-11-21T01:16:54;101179.31;;;6.25;86.47
79453;BME280;68899;52.116;5.404;2023-11-21T01:19:20;101184.59;;;6.23;86.46
79453;BME280;68899;52.116;5.404;2023-11-21T01:21:47;101182.91;;;6.22;86.17
79453;BME280;68899;52.116;5.404;2023-11-21T01:24:13;101189.91;;;6.22;86.48
79453;BME280;68899;52.116;5.404;2023-11-21T01:26:40;101182.19;;;6.19;86.34
79453;BME280;68899;52.116;5.404;2023-11-21T01:29:06;101177.75;;;6.21;86.47
79453;BME280;68899;52.116;5.404;2023-11-21T01:31:33;101174.34;;;6.19;86.64
79453;BME280;68899;52.116;5.404;2023-11-21T01:34:00;101179.50;;;6.20;86.61
79453;BME280;68899;52.116;5.404;2023-11-21T01:36:31;101179.50;;;6.20;86.17
79453;BME280;68899;52.116;5.404;2023-11-21T01:39:01;101183.03;;;6.19;86.69
79453;BME280;68899;52.116;5.404;2023-11-21T01:41:34;101183.88;;;6.20;86.54
79453;BME280;68899;52.116;5.404;2023-11-21T01:44:01;101180.28;;;6.22;86.80
79453;BME280;68899;52.116;5.404;2023-11-21T01:46:28;101187.16;;;6.25;87.10
79453;BME280;68899;52.116;5.404;2023-11-21T01:48:56;101183.66;;;6.26;87.39
79453;BME280;68899;52.116;5.404;2023-11-21T01:51:23;101191.38;;;6.29;87.44
79453;BME280;68899;52.116;5.404;2023-11-21T01:53:50;101202.53;;;6.33;87.10
79453;BME280;68899;52.116;5.404;2023-11-21T01:56:16;101193.78;;;6.34;87.25
79453;BME280;68899;52.116;5.404;2023-11-21T01:58:43;101194.66;;;6.34;87.63
79453;BME280;68899;52.116;5.404;2023-11-21T02:01:10;101200.75;;;6.35;87.60
79453;BME280;68899;52.116;5.404;2023-11-21T02:03:36;101203.28;;;6.36;87.53
79453;BME280;68899;52.116;5.404;2023-11-21T02:06:03;101211.78;;;6.41;88.24
79453;BME280;68899;52.116;5.404;2023-11-21T02:08:30;101216.00;;;6.45;87.54
79453;BME280;68899;52.116;5.404;2023-11-21T02:10:57;101219.47;;;6.46;87.79
79453;BME280;68899;52.116;5.404;2023-11-21T02:13:25;101223.78;;;6.47;88.10
79453;BME280;68899;52.116;5.404;2023-11-21T02:15:51;101224.63;;;6.47;87.86
79453;BME280;68899;52.116;5.404;2023-11-21T02:18:19;101225.47;;;6.48;88.08
79453;BME280;68899;52.116;5.404;2023-11-21T02:20:46;101229.88;;;6.47;88.01
79453;BME280;68899;52.116;5.404;2023-11-21T02:23:13;101234.31;;;6.45;87.78
79453;BME280;68899;52.116;5.404;2023-11-21T02:25:40;101238.56;;;6.48;88.00
79453;BME280;68899;52.116;5.404;2023-11-21T02:28:09;101234.09;;;6.50;88.20
79453;BME280;68899;52.116;5.404;2023-11-21T02:30:39;101236.56;;;6.55;88.18
79453;BME280;68899;52.116;5.404;2023-11-21T02:33:05;101235.53;;;6.59;88.34
79453;BME280;68899;52.116;5.404;2023-11-21T02:35:33;101237.19;;;6.61;88.94
79453;BME280;68899;52.116;5.404;2023-11-21T02:38:01;101243.19;;;6.63;88.46
79453;BME280;68899;52.116;5.404;2023-11-21T02:40:28;101237.00;;;6.66;88.75
79453;BME280;68899;52.116;5.404;2023-11-21T02:42:56;101244.78;;;6.67;88.64
79453;BME280;68899;52.116;5.404;2023-11-21T02:45:26;101240.34;;;6.69;88.94
79453;BME280;68899;52.116;5.404;2023-11-21T02:47:52;101248.91;;;6.73;89.20
79453;BME280;68899;52.116;5.404;2023-11-21T02:50:24;101245.38;;;6.74;89.07
79453;BME280;68899;52.116;5.404;2023-11-21T02:52:50;101243.56;;;6.76;89.25
79453;BME280;68899;52.116;5.404;2023-11-21T02:55:17;101243.47;;;6.79;89.16
79453;BME280;68899;52.116;5.404;2023-11-21T02:57:44;101243.38;;;6.80;89.41
79453;BME280;68899;52.116;5.404;2023-11-21T03:00:11;101244.25;;;6.81;89.82
79453;BME280;68899;52.116;5.404;2023-11-21T03:02:39;101241.56;;;6.83;90.16
79453;BME280;68899;52.116;5.404;2023-11-21T03:05:07;101245.88;;;6.84;90.24
79453;BME280;68899;52.116;5.404;2023-11-21T03:07:37;101249.34;;;6.84;90.58
79453;BME280;68899;52.116;5.404;2023-11-21T03:10:04;101245.88;;;6.84;90.13
79453;BME280;68899;52.116;5.404;2023-11-21T03:12:30;101245.78;;;6.87;91.00
79453;BME280;68899;52.116;5.404;2023-11-21T03:14:57;101243.88;;;6.90;90.74
79453;BME280;68899;52.116;5.404;2023-11-21T03:17:23;101239.34;;;6.94;90.41
79453;BME280;68899;52.116;5.404;2023-11-21T03:19:50;101237.59;;;6.94;90.88
79453;BME280;68899;52.116;5.404;2023-11-21T03:22:18;101241.94;;;6.95;90.74
79453;BME280;68899;52.116;5.404;2023-11-21T03:24:45;101243.56;;;6.98;91.22
79453;BME280;68899;52.116;5.404;2023-11-21T03:27:12;101244.41;;;6.98;90.78
79453;BME280;68899;52.116;5.404;2023-11-21T03:29:38;101247.03;;;6.98;90.95
79453;BME280;68899;52.116;5.404;2023-11-21T03:32:05;101248.66;;;7.01;91.29
79453;BME280;68899;52.116;5.404;2023-11-21T03:34:33;101246.91;;;7.01;90.91
79453;BME280;68899;52.116;5.404;2023-11-21T03:37:00;101252.06;;;7.03;90.69
79453;BME280;68899;52.116;5.404;2023-11-21T03:39:26;101252.91;;;7.03;91.43
79453;BME280;68899;52.116;5.404;2023-11-21T03:41:53;101252.03;;;7.04;91.00
79453;BME280;68899;52.116;5.404;2023-11-21T03:44:20;101255.44;;;7.06;91.49
79453;BME280;68899;52.116;5.404;2023-11-21T03:46:46;101251.13;;;7.05;91.38
79453;BME280;68899;52.116;5.404;2023-11-21T03:49:13;101258.91;;;7.07;91.40
79453;BME280;68899;52.116;5.404;2023-11-21T03:51:39;101260.59;;;7.08;91.37
79453;BME280;68899;52.116;5.404;2023-11-21T03:54:06;101259.59;;;7.11;91.27
79453;BME280;68899;52.116;5.404;2023-11-21T03:56:32;101270.88;;;7.13;91.06
79453;BME280;68899;52.116;5.404;2023-11-21T03:58:58;101265.59;;;7.14;91.35
79453;BME280;68899;52.116;5.404;2023-11-21T04:01:25;101269.91;;;7.15;90.87
79453;BME280;68899;52.116;5.404;2023-11-21T04:03:52;101280.31;;;7.17;91.31
79453;BME280;68899;52.116;5.404;2023-11-21T04:06:18;101279.38;;;7.18;91.08
79453;BME280;68899;52.116;5.404;2023-11-21T04:08:45;101287.22;;;7.18;91.47
79453;BME280;68899;52.116;5.404;2023-11-21T04:11:14;101288.03;;;7.20;91.61
79453;BME280;68899;52.116;5.404;2023-11-21T04:13:42;101287.97;;;7.21;91.58
79453;BME280;68899;52.116;5.404;2023-11-21T04:16:08;101292.31;;;7.22;91.71
79453;BME280;68899;52.116;5.404;2023-11-21T04:18:36;101290.53;;;7.23;91.48
79453;BME280;68899;52.116;5.404;2023-11-21T04:21:06;101304.41;;;7.25;91.60
79453;BME280;68899;52.116;5.404;2023-11-21T04:23:34;101300.88;;;7.26;92.19
79453;BME280;68899;52.116;5.404;2023-11-21T04:26:01;101302.56;;;7.27;92.19
79453;BME280;68899;52.116;5.404;2023-11-21T04:28:28;101308.66;;;7.27;91.87
79453;BME280;68899;52.116;5.404;2023-11-21T04:30:56;101314.72;;;7.28;91.89
79453;BME280;68899;52.116;5.404;2023-11-21T04:33:22;101307.72;;;7.28;92.01
79453;BME280;68899;52.116;5.404;2023-11-21T04:35:49;101313.81;;;7.29;92.32
79453;BME280;68899;52.116;5.404;2023-11-21T04:38:15;101316.44;;;7.29;92.26
79453;BME280;68899;52.116;5.404;2023-11-21T04:40:42;101324.25;;;7.30;92.37
79453;BME280;68899;52.116;5.404;2023-11-21T04:43:09;101325.94;;;7.31;92.31
79453;BME280;68899;52.116;5.404;2023-11-21T04:45:35;101332.03;;;7.32;92.49
79453;BME280;68899;52.116;5.404;2023-11-21T04:48:02;101325.03;;;7.32;92.42
79453;BME280;68899;52.116;5.404;2023-11-21T04:50:28;101333.78;;;7.31;92.59
79453;BME280;68899;52.116;5.404;2023-11-21T04:52:55;101332.81;;;7.34;92.46
79453;BME280;68899;52.116;5.404;2023-11-21T04:55:21;101336.28;;;7.34;92.79
79453;BME280;68899;52.116;5.404;2023-11-21T04:57:48;101335.38;;;7.35;93.05
79453;BME280;68899;52.116;5.404;2023-11-21T05:00:14;101332.75;;;7.35;92.53
79453;BME280;68899;52.116;5.404;2023-11-21T05:02:42;101336.16;;;7.37;92.79
79453;BME280;68899;52.116;5.404;2023-11-21T05:05:10;101334.34;;;7.40;93.13
79453;BME280;68899;52.116;5.404;2023-11-21T05:07:37;101343.91;;;7.41;92.90
79453;BME280;68899;52.116;5.404;2023-11-21T05:10:05;101349.06;;;7.42;92.69
79453;BME280;68899;52.116;5.404;2023-11-21T05:12:35;101349.84;;;7.44;92.92
79453;BME280;68899;52.116;5.404;2023-11-21T05:15:04;101349.00;;;7.44;92.99
79453;BME280;68899;52.116;5.404;2023-11-21T05:17:33;101356.78;;;7.45;93.31
79453;BME280;68899;52.116;5.404;2023-11-21T05:20:01;101356.78;;;7.45;93.46
79453;BME280;68899;52.116;5.404;2023-11-21T05:22:34;101360.22;;;7.47;93.24
79453;BME280;68899;52.116;5.404;2023-11-21T05:25:02;101357.59;;;7.47;93.27
79453;BME280;68899;52.116;5.404;2023-11-21T05:27:30;101369.69;;;7.50;93.37
79453;BME280;68899;52.116;5.404;2023-11-21T05:30:06;101357.53;;;7.49;93.71
79453;BME280;68899;52.116;5.404;2023-11-21T05:32:33;101367.00;;;7.51;93.72
79453;BME280;68899;52.116;5.404;2023-11-21T05:35:00;101367.78;;;7.53;93.40
79453;BME280;68899;52.116;5.404;2023-11-21T05:37:27;101372.13;;;7.54;93.89
79453;BME280;68899;52.116;5.404;2023-11-21T05:39:54;101370.34;;;7.55;93.79
79453;BME280;68899;52.116;5.404;2023-11-21T05:42:23;101376.44;;;7.55;93.62
79453;BME280;68899;52.116;5.404;2023-11-21T05:44:50;101374.63;;;7.57;93.48
79453;BME280;68899;52.116;5.404;2023-11-21T05:47:16;101384.19;;;7.58;93.74
79453;BME280;68899;52.116;5.404;2023-11-21T05:49:43;101376.25;;;7.60;94.00
79453;BME280;68899;52.116;5.404;2023-11-21T05:52:11;101387.66;;;7.59;93.76
79453;BME280;68899;52.116;5.404;2023-11-21T05:54:37;101388.50;;;7.59;93.94
79453;BME280;68899;52.116;5.404;2023-11-21T05:57:04;101396.28;;;7.61;93.83
79453;BME280;68899;52.116;5.404;2023-11-21T05:59:30;101398.84;;;7.62;94.21
79453;BME280;68899;52.116;5.404;2023-11-21T06:01:57;101407.53;;;7.63;93.74
79453;BME280;68899;52.116;5.404;2023-11-21T06:04:25;101404.00;;;7.64;93.98
79453;BME280;68899;52.116;5.404;2023-11-21T06:06:52;101405.75;;;7.65;94.13
79453;BME280;68899;52.116;5.404;2023-11-21T06:09:21;101407.44;;;7.66;94.44
79453;BME280;68899;52.116;5.404;2023-11-21T06:11:48;101416.22;;;7.65;93.95
79453;BME280;68899;52.116;5.404;2023-11-21T06:14:14;101417.06;;;7.65;94.63
79453;BME280;68899;52.116;5.404;2023-11-21T06:16:44;101423.94;;;7.68;94.41
79453;BME280;68899;52.116;5.404;2023-11-21T06:19:11;101423.03;;;7.69;94.36
79453;BME280;68899;52.116;5.404;2023-11-21T06:21:38;101424.78;;;7.69;93.80
79453;BME280;68899;52.116;5.404;2023-11-21T06:24:05;101427.34;;;7.70;94.27
79453;BME280;68899;52.116;5.404;2023-11-21T06:26:31;101430.75;;;7.72;94.59
79453;BME280;68899;52.116;5.404;2023-11-21T06:28:58;101427.25;;;7.73;94.56
79453;BME280;68899;52.116;5.404;2023-11-21T06:31:25;101430.72;;;7.74;94.55
79453;BME280;68899;52.116;5.404;2023-11-21T06:33:51;101435.88;;;7.75;94.36
79453;BME280;68899;52.116;5.404;2023-11-21T06:36:19;101433.19;;;7.77;94.50
79453;BME280;68899;52.116;5.404;2023-11-21T06:38:45;101438.44;;;7.77;94.29
79453;BME280;68899;52.116;5.404;2023-11-21T06:41:12;101443.66;;;7.77;94.68
79453;BME280;68899;52.116;5.404;2023-11-21T06:43:42;101439.22;;;7.79;94.47
79453;BME280;68899;52.116;5.404;2023-11-21T06:46:13;101445.25;;;7.81;94.73
79453;BME280;68899;52.116;5.404;2023-11-21T06:48:42;101451.28;;;7.83;94.82
79453;BME280;68899;52.116;5.404;2023-11-21T06:51:09;101447.81;;;7.82;94.45
79453;BME280;68899;52.116;5.404;2023-11-21T06:53:36;101454.69;;;7.85;94.75
79453;BME280;68899;52.116;5.404;2023-11-21T06:56:05;101454.63;;;7.86;94.85
79453;BME280;68899;52.116;5.404;2023-11-21T06:58:41;101459.72;;;7.89;94.73
79453;BME280;68899;52.116;5.404;2023-11-21T07:01:07;101462.31;;;7.91;95.07
79453;BME280;68899;52.116;5.404;2023-11-21T07:03:34;101462.25;;;7.92;95.12
79453;BME280;68899;52.116;5.404;2023-11-21T07:06:01;101469.19;;;7.93;94.75
79453;BME280;68899;52.116;5.404;2023-11-21T07:08:27;101472.59;;;7.96;94.78
79453;BME280;68899;52.116;5.404;2023-11-21T07:10:53;101475.13;;;7.97;94.84
79453;BME280;68899;52.116;5.404;2023-11-21T07:13:20;101482.94;;;7.99;94.94
79453;BME280;68899;52.116;5.404;2023-11-21T07:15:49;101481.13;;;8.01;94.94
79453;BME280;68899;52.116;5.404;2023-11-21T07:18:15;101495.94;;;8.02;95.32
79453;BME280;68899;52.116;5.404;2023-11-21T07:20:42;101495.00;;;8.03;95.16
79453;BME280;68899;52.116;5.404;2023-11-21T07:23:08;101494.88;;;8.06;94.95
79453;BME280;68899;52.116;5.404;2023-11-21T07:25:34;101498.25;;;8.09;95.82
79453;BME280;68899;52.116;5.404;2023-11-21T07:28:01;101504.28;;;8.11;95.39
79453;BME280;68899;52.116;5.404;2023-11-21T07:30:27;101510.28;;;8.13;95.83
79453;BME280;68899;52.116;5.404;2023-11-21T07:32:54;101507.53;;;8.16;95.37
79453;BME280;68899;52.116;5.404;2023-11-21T07:35:20;101505.72;;;8.18;95.68
79453;BME280;68899;52.116;5.404;2023-11-21T07:37:47;101503.03;;;8.20;95.88
79453;BME280;68899;52.116;5.404;2023-11-21T07:40:15;101504.69;;;8.22;95.69
79453;BME280;68899;52.116;5.404;2023-11-21T07:42:41;101508.94;;;8.25;95.79
79453;BME280;68899;52.116;5.404;2023-11-21T07:45:09;101514.13;;;8.27;95.88
79453;BME280;68899;52.116;5.404;2023-11-21T07:47:35;101518.38;;;8.29;95.96
79453;BME280;68899;52.116;5.404;2023-11-21T07:50:03;101529.66;;;8.31;95.70
79453;BME280;68899;52.116;5.404;2023-11-21T07:52:29;101529.59;;;8.33;95.99
79453;BME280;68899;52.116;5.404;2023-11-21T07:54:56;101531.28;;;8.34;95.92
79453;BME280;68899;52.116;5.404;2023-11-21T07:57:22;101536.53;;;8.35;95.80
79453;BME280;68899;52.116;5.404;2023-11-21T07:59:49;101534.69;;;8.37;95.95
79453;BME280;68899;52.116;5.404;2023-11-21T08:02:16;101547.72;;;8.39;96.12
79453;BME280;68899;52.116;5.404;2023-11-21T08:04:44;101550.22;;;8.42;95.81
79453;BME280;68899;52.116;5.404;2023-11-21T08:07:11;101553.59;;;8.45;96.00
79453;BME280;68899;52.116;5.404;2023-11-21T08:09:37;101565.53;;;8.53;96.11
79453;BME280;68899;52.116;5.404;2023-11-21T08:12:04;101570.78;;;8.53;95.87
79453;BME280;68899;52.116;5.404;2023-11-21T08:14:31;101569.72;;;8.57;96.49
79453;BME280;68899;52.116;5.404;2023-11-21T08:16:57;101573.97;;;8.59;96.40
79453;BME280;68899;52.116;5.404;2023-11-21T08:19:24;101579.19;;;8.61;96.22
79453;BME280;68899;52.116;5.404;2023-11-21T08:21:54;101579.03;;;8.64;96.71
79453;BME280;68899;52.116;5.404;2023-11-21T08:24:21;101598.97;;;8.68;96.09
79453;BME280;68899;52.116;5.404;2023-11-21T08:26:48;101593.69;;;8.69;96.27
79453;BME280;68899;52.116;5.404;2023-11-21T08:29:14;101597.09;;;8.71;96.26
79453;BME280;68899;52.116;5.404;2023-11-21T08:31:41;101600.50;;;8.73;96.32
79453;BME280;68899;52.116;5.404;2023-11-21T08:34:07;101596.03;;;8.75;96.29
79453;BME280;68899;52.116;5.404;2023-11-21T08:36:35;101609.06;;;8.77;95.99
79453;BME280;68899;52.116;5.404;2023-11-21T08:39:01;101615.19;;;8.77;96.16
79453;BME280;68899;52.116;5.404;2023-11-21T08:41:28;101624.78;;;8.78;96.28
79453;BME280;68899;52.116;5.404;2023-11-21T08:43:54;101626.47;;;8.80;96.33
79453;BME280;68899;52.116;5.404;2023-11-21T08:46:21;101630.81;;;8.81;96.47
79453;BME280;68899;52.116;5.404;2023-11-21T08:48:48;101630.66;;;8.84;96.70
79453;BME280;68899;52.116;5.404;2023-11-21T08:51:15;101635.81;;;8.87;96.75
79453;BME280;68899;52.116;5.404;2023-11-21T08:53:42;101637.38;;;8.91;96.33
79453;BME280;68899;52.116;5.404;2023-11-21T08:56:12;101635.53;;;8.93;96.26
79453;BME280;68899;52.116;5.404;2023-11-21T08:58:40;101645.09;;;8.94;96.59
79453;BME280;68899;52.116;5.404;2023-11-21T09:01:07;101638.91;;;8.96;96.33
79453;BME280;68899;52.116;5.404;2023-11-21T09:03:34;101641.38;;;8.99;96.26
79453;BME280;68899;52.116;5.404;2023-11-21T09:06:01;101644.72;;;9.03;96.04
79453;BME280;68899;52.116;5.404;2023-11-21T09:08:27;101651.47;;;9.09;96.38
79453;BME280;68899;52.116;5.404;2023-11-21T09:10:56;101667.84;;;9.15;96.29
79453;BME280;68899;52.116;5.404;2023-11-21T09:13:23;101674.66;;;9.19;96.21
79453;BME280;68899;52.116;5.404;2023-11-21T09:15:51;101679.81;;;9.21;96.13
79453;BME280;68899;52.116;5.404;2023-11-21T09:18:18;101682.41;;;9.22;96.26
79453;BME280;68899;52.116;5.404;2023-11-21T09:20:45;101684.13;;;9.23;95.96
79453;BME280;68899;52.116;5.404;2023-11-21T09:23:12;101684.97;;;9.24;96.25
79453;BME280;68899;52.116;5.404;2023-11-21T09:25:38;101683.25;;;9.23;96.25
79453;BME280;68899;52.116;5.404;2023-11-21T09:28:05;101685.03;;;9.22;96.17
79453;BME280;68899;52.116;5.404;2023-11-21T09:30:34;101687.59;;;9.24;96.34
79453;BME280;68899;52.116;5.404;2023-11-21T09:33:02;101689.28;;;9.25;96.34
79453;BME280;68899;52.116;5.404;2023-11-21T09:35:29;101696.31;;;9.24;96.11
79453;BME280;68899;52.116;5.404;2023-11-21T09:37:56;101707.75;;;9.23;96.18
79453;BME280;68899;52.116;5.404;2023-11-21T09:40:23;101711.28;;;9.22;96.09
79453;BME280;68899;52.116;5.404;2023-11-21T09:42:59;101727.09;;;9.21;96.03
79453;BME280;68899;52.116;5.404;2023-11-21T09:45:28;101723.69;;;9.19;96.11
79453;BME280;68899;52.116;5.404;2023-11-21T09:47:56;101732.41;;;9.19;95.96
79453;BME280;68899;52.116;5.404;2023-11-21T09:50:24;101731.63;;;9.17;95.97
79453;BME280;68899;52.116;5.404;2023-11-21T09:55:37;101743.91;;;9.17;95.83
79453;BME280;68899;52.116;5.404;2023-11-21T09:58:08;101749.16;;;9.17;95.94
79453;BME280;68899;52.116;5.404;2023-11-21T10:00:42;101749.22;;;9.15;95.77
79453;BME280;68899;52.116;5.404;2023-11-21T10:03:09;101744.88;;;9.14;95.66
79453;BME280;68899;52.116;5.404;2023-11-21T10:05:37;101753.72;;;9.12;95.46
79453;BME280;68899;52.116;5.404;2023-11-21T10:08:13;101755.56;;;9.10;95.29
79453;BME280;68899;52.116;5.404;2023-11-21T10:10:43;101751.22;;;9.09;95.32
79453;BME280;68899;52.116;5.404;2023-11-21T10:13:15;101753.84;;;9.09;95.39
79453;BME280;68899;52.116;5.404;2023-11-21T10:15:50;101763.50;;;9.08;95.18
79453;BME280;68899;52.116;5.404;2023-11-21T10:18:17;101760.88;;;9.08;95.37
79453;BME280;68899;52.116;5.404;2023-11-21T10:20:45;101778.22;;;9.12;95.01
79453;BME280;68899;52.116;5.404;2023-11-21T10:23:20;101774.69;;;9.13;94.55
79453;BME280;68899;52.116;5.404;2023-11-21T10:25:48;101786.03;;;9.14;94.74
79453;BME280;68899;52.116;5.404;2023-11-21T10:28:16;101786.81;;;9.16;94.62
79453;BME280;68899;52.116;5.404;2023-11-21T10:30:42;101789.38;;;9.17;95.00
79453;BME280;68899;52.116;5.404;2023-11-21T10:33:10;101790.16;;;9.19;94.54
79453;BME280;68899;52.116;5.404;2023-11-21T10:35:46;101794.50;;;9.20;94.09
79453;BME280;68899;52.116;5.404;2023-11-21T10:38:17;101798.97;;;9.18;93.95
79453;BME280;68899;52.116;5.404;2023-11-21T10:40:44;101807.75;;;9.17;93.68
79453;BME280;68899;52.116;5.404;2023-11-21T10:43:12;101814.06;;;9.13;93.48
79453;BME280;68899;52.116;5.404;2023-11-21T10:45:40;101820.25;;;9.11;93.62
79453;BME280;68899;52.116;5.404;2023-11-21T10:48:07;101831.75;;;9.08;93.30
79453;BME280;68899;52.116;5.404;2023-11-21T10:50:51;101833.53;;;9.07;93.57
79453;BME280;68899;52.116;5.404;2023-11-21T10:53:18;101841.41;;;9.07;93.41
79453;BME280;68899;52.116;5.404;2023-11-21T10:55:45;101840.59;;;9.05;93.42
79453;BME280;68899;52.116;5.404;2023-11-21T10:58:13;101856.34;;;9.05;93.50
79453;BME280;68899;52.116;5.404;2023-11-21T11:00:40;101853.72;;;9.05;93.11
79453;BME280;68899;52.116;5.404;2023-11-21T11:03:07;101863.31;;;9.06;93.34
79453;BME280;68899;52.116;5.404;2023-11-21T11:05:43;101856.28;;;9.07;92.98
79453;BME280;68899;52.116;5.404;2023-11-21T11:08:18;101851.97;;;9.06;93.37
79453;BME280;68899;52.116;5.404;2023-11-21T11:10:46;101857.22;;;9.06;93.31
79453;BME280;68899;52.116;5.404;2023-11-21T11:13:15;101846.66;;;9.07;93.73
79453;BME280;68899;52.116;5.404;2023-11-21T11:15:42;101849.09;;;9.12;93.52
79453;BME280;68899;52.116;5.404;2023-11-21T11:18:09;101845.59;;;9.12;93.55
79453;BME280;68899;52.116;5.404;2023-11-21T11:20:37;101851.75;;;9.11;93.50
79453;BME280;68899;52.116;5.404;2023-11-21T11:23:32;101861.34;;;9.12;93.24
79453;BME280;68899;52.116;5.404;2023-11-21T11:26:12;101869.28;;;9.10;93.43
79453;BME280;68899;52.116;5.404;2023-11-21T11:28:46;101866.66;;;9.10;93.47
79453;BME280;68899;52.116;5.404;2023-11-21T11:31:36;101865.81;;;9.10;93.47
79453;BME280;68899;52.116;5.404;2023-11-21T11:34:17;101869.28;;;9.10;93.40
79453;BME280;68899;52.116;5.404;2023-11-21T11:36:59;101877.97;;;9.12;92.91
79453;BME280;68899;52.116;5.404;2023-11-21T11:39:26;101880.53;;;9.14;93.21
79453;BME280;68899;52.116;5.404;2023-11-21T11:41:53;101876.16;;;9.14;93.61
79453;BME280;68899;52.116;5.404;2023-11-21T11:50:04;101880.19;;;9.23;93.27
79453;BME280;68899;52.116;5.404;2023-11-21T11:52:39;101884.63;;;9.21;93.12
79453;BME280;68899;52.116;5.404;2023-11-21T11:55:13;101893.38;;;9.21;92.87
79453;BME280;68899;52.116;5.404;2023-11-21T11:57:42;101895.13;;;9.21;93.16
79453;BME280;68899;52.116;5.404;2023-11-21T12:02:53;101901.25;;;9.21;92.90
79453;BME280;68899;52.116;5.404;2023-11-21T12:05:21;101910.78;;;9.24;92.93
79453;BME280;68899;52.116;5.404;2023-11-21T12:07:53;101913.41;;;9.24;92.89
79453;BME280;68899;52.116;5.404;2023-11-21T12:10:23;101915.22;;;9.22;92.82
79453;BME280;68899;52.116;5.404;2023-11-21T12:12:52;101917.84;;;9.22;92.86
79453;BME280;68899;52.116;5.404;2023-11-21T12:15:20;101914.25;;;9.24;92.83
79453;BME280;68899;52.116;5.404;2023-11-21T12:17:50;101919.50;;;9.24;92.71
79453;BME280;68899;52.116;5.404;2023-11-21T12:20:19;101918.72;;;9.22;92.82
79453;BME280;68899;52.116;5.404;2023-11-21T12:22:47;101922.19;;;9.23;92.64
79453;BME280;68899;52.116;5.404;2023-11-21T12:27:43;101924.00;;;9.21;92.74
79453;BME280;68899;52.116;5.404;2023-11-21T12:30:11;101924.91;;;9.20;92.62
79453;BME280;68899;52.116;5.404;2023-11-21T12:32:43;101932.78;;;9.20;92.56
79453;BME280;68899;52.116;5.404;2023-11-21T12:35:10;101935.47;;;9.18;92.64
79453;BME280;68899;52.116;5.404;2023-11-21T12:37:38;101926.75;;;9.18;92.39
79453;BME280;68899;52.116;5.404;2023-11-21T12:40:06;101936.41;;;9.17;92.58
79453;BME280;68899;52.116;5.404;2023-11-21T12:42:34;101940.78;;;9.17;92.55
79453;BME280;68899;52.116;5.404;2023-11-21T12:47:43;101946.09;;;9.15;92.20
79453;BME280;68899;52.116;5.404;2023-11-21T12:50:21;101947.81;;;9.16;92.46
79453;BME280;68899;52.116;5.404;2023-11-21T12:52:51;101947.88;;;9.15;92.53
79453;BME280;68899;52.116;5.404;2023-11-21T12:55:19;101956.59;;;9.15;92.43
79453;BME280;68899;52.116;5.404;2023-11-21T12:57:51;101951.41;;;9.14;92.39
79453;BME280;68899;52.116;5.404;2023-11-21T13:00:18;101961.00;;;9.15;92.45
79453;BME280;68899;52.116;5.404;2023-11-21T13:02:55;101952.28;;;9.14;92.00
79453;BME280;68899;52.116;5.404;2023-11-21T13:05:25;101961.78;;;9.17;92.32
79453;BME280;68899;52.116;5.404;2023-11-21T13:07:52;101968.69;;;9.19;92.29
79453;BME280;68899;52.116;5.404;2023-11-21T13:10:25;101973.88;;;9.21;92.01
79453;BME280;68899;52.116;5.404;2023-11-21T13:12:53;101974.63;;;9.24;92.21
79453;BME280;68899;52.116;5.404;2023-11-21T13:15:21;101974.63;;;9.24;92.07
79453;BME280;68899;52.116;5.404;2023-11-21T13:17:47;101978.00;;;9.28;92.08
79453;BME280;68899;52.116;5.404;2023-11-21T13:20:14;101981.47;;;9.28;91.90